Terminal Aerodrome Forecast
Issued by NWS

Home | Current Version | Previous Version | Graphics & Text | Print | Product List | Glossary On
Versions: 1 2 3 4 5 6 7 8 9 10 11 12 13 14 15 16 17 18 19 20 21 22
000
FTUS43 KMPX 020619 AAA
TAFRWF
TAF AMD
KRWF 020619Z 0206/0306 16004KT P6SM VCSH BKN070
      TEMPO 0206/0207 15025G35KT 3SM -TSRA OVC050CB
     FM020700 16007KT 6SM BR BKN070
      TEMPO 0209/0212 1SM BR SCT005 BKN009
     FM021400 17010KT P6SM SCT040
     FM030300 12002KT 6SM BR SKC=

USA.gov is the U.S. government's official web portal to all federal, state and local government web resources and services.